createdAt,value
2018-07-30T00:00:43.941Z,78.80
2018-07-30T00:03:13.078Z,79.80
2018-07-30T00:05:42.133Z,79.10
2018-07-30T00:08:11.151Z,78.80
2018-07-30T00:10:40.162Z,78.10
2018-07-30T00:13:09.244Z,78.40
2018-07-30T00:15:38.237Z,78.80
2018-07-30T00:18:07.823Z,80.10
2018-07-30T00:20:36.924Z,79.90
2018-07-30T00:23:06.077Z,80.00
2018-07-30T00:25:35.292Z,79.70
2018-07-30T00:28:04.329Z,80.40
2018-07-30T00:30:33.327Z,79.80
2018-07-30T00:33:02.399Z,81.40
2018-07-30T00:35:31.479Z,81.70
2018-07-30T00:38:00.402Z,81.10
2018-07-30T00:40:29.902Z,80.70
2018-07-30T00:42:59.117Z,82.20
2018-07-30T00:45:28.304Z,82.20
2018-07-30T00:50:26.025Z,82.60
2018-07-30T00:52:55.134Z,82.80
2018-07-30T00:55:24.277Z,82.60
2018-07-30T01:00:21.952Z,82.90
2018-07-30T01:02:51.018Z,82.50
2018-07-30T01:05:20.094Z,83.70
2018-07-30T01:07:49.153Z,84.00
2018-07-30T01:10:18.158Z,83.70
2018-07-30T01:12:47.321Z,84.00
2018-07-30T01:15:16.367Z,85.40
2018-07-30T01:17:45.358Z,85.50
2018-07-30T01:20:14.414Z,86.20
2018-07-30T01:22:43.423Z,87.00
2018-07-30T01:25:12.411Z,86.30
2018-07-30T01:27:41.381Z,86.50
2018-07-30T01:30:10.411Z,87.40
2018-07-30T01:32:39.414Z,87.50
2018-07-30T01:35:08.749Z,86.80
2018-07-30T01:37:37.725Z,85.30
2018-07-30T01:40:06.736Z,88.20
2018-07-30T01:45:04.680Z,89.20
2018-07-30T01:47:33.899Z,89.50
2018-07-30T01:50:02.970Z,89.50
2018-07-30T01:52:31.945Z,90.10
2018-07-30T01:55:01.006Z,89.70
2018-07-30T01:57:30.037Z,90.20
2018-07-30T01:59:59.146Z,89.80
2018-07-30T02:02:28.089Z,90.30
2018-07-30T02:04:58.952Z,90.30
2018-07-30T02:07:27.948Z,90.60
2018-07-30T02:09:56.904Z,90.50
2018-07-30T02:12:25.961Z,89.50
2018-07-30T02:14:54.994Z,90.60
2018-07-30T02:17:24.029Z,90.60
2018-07-30T02:19:53.024Z,90.80
2018-07-30T02:22:22.000Z,91.00
2018-07-30T02:24:51.098Z,90.90
2018-07-30T02:27:20.569Z,90.90
2018-07-30T02:29:49.620Z,91.20
2018-07-30T02:32:18.562Z,91.70
2018-07-30T02:34:47.586Z,91.80
2018-07-30T02:37:16.734Z,92.00
2018-07-30T02:39:45.812Z,92.10
2018-07-30T02:42:15.547Z,92.00
2018-07-30T02:44:44.559Z,92.00
2018-07-30T02:47:13.567Z,92.00
2018-07-30T02:49:42.613Z,92.60
2018-07-30T02:52:11.570Z,91.70
2018-07-30T02:54:40.623Z,92.20
2018-07-30T02:57:10.094Z,92.40
2018-07-30T02:59:39.127Z,92.70
2018-07-30T03:02:08.283Z,92.70
2018-07-30T03:04:37.566Z,92.90
2018-07-30T03:09:35.309Z,93.30
2018-07-30T03:12:04.445Z,93.40
2018-07-30T03:14:33.532Z,93.60
2018-07-30T03:19:31.628Z,92.50
2018-07-30T03:22:01.140Z,93.10
2018-07-30T03:24:30.163Z,93.80
2018-07-30T03:26:59.174Z,93.80
2018-07-30T03:29:28.170Z,94.30
2018-07-30T03:31:57.307Z,94.40
2018-07-30T03:34:26.721Z,94.80
2018-07-30T03:36:55.693Z,94.40
2018-07-30T03:39:24.757Z,94.70
2018-07-30T03:41:53.761Z,94.90
2018-07-30T03:44:22.913Z,95.40
2018-07-30T03:46:51.962Z,95.10
2018-07-30T03:49:20.982Z,95.10
2018-07-30T03:51:50.164Z,95.40
2018-07-30T03:54:19.517Z,95.50
2018-07-30T03:56:48.505Z,95.40
2018-07-30T03:59:17.470Z,95.20
2018-07-30T04:01:46.611Z,96.10
2018-07-30T04:04:15.661Z,96.70
2018-07-30T04:06:45.871Z,96.50
2018-07-30T04:09:15.077Z,96.20
2018-07-30T04:11:44.072Z,96.20
2018-07-30T04:14:13.143Z,96.00
2018-07-30T04:16:47.772Z,95.90
2018-07-30T04:19:17.101Z,96.20
2018-07-30T04:21:46.407Z,96.40
2018-07-30T04:24:15.673Z,96.00
2018-07-30T04:26:46.084Z,95.30
2018-07-30T04:29:16.022Z,95.90
2018-07-30T04:31:45.350Z,95.50
2018-07-30T04:34:14.322Z,95.90
2018-07-30T04:36:43.423Z,96.10
2018-07-30T04:39:13.908Z,95.60
2018-07-30T04:41:43.624Z,96.60
2018-07-30T04:44:12.803Z,96.20
2018-07-30T04:46:41.768Z,96.20
2018-07-30T04:49:10.847Z,96.40
2018-07-30T04:51:39.931Z,95.90
2018-07-30T04:54:10.569Z,95.40
2018-07-30T04:56:39.551Z,94.80
2018-07-30T04:59:08.581Z,95.30
2018-07-30T05:01:37.579Z,95.60
2018-07-30T05:04:06.675Z,95.90
2018-07-30T05:09:06.653Z,95.70
2018-07-30T05:11:35.664Z,95.80
2018-07-30T05:14:05.081Z,95.80
2018-07-30T05:16:34.173Z,95.50
2018-07-30T05:19:03.156Z,95.50
2018-07-30T05:21:32.177Z,95.50
2018-07-30T05:24:01.153Z,95.40
2018-07-30T05:26:30.307Z,95.50
2018-07-30T05:28:59.333Z,95.40
2018-07-30T05:31:28.595Z,95.20
2018-07-30T05:33:57.643Z,95.10
2018-07-30T05:36:26.622Z,95.20
2018-07-30T05:38:56.109Z,95.00
2018-07-30T05:41:25.374Z,94.80
2018-07-30T05:43:54.462Z,94.20
2018-07-30T05:46:23.696Z,93.70
2018-07-30T05:48:52.695Z,93.60
2018-07-30T05:51:21.680Z,93.10
2018-07-30T05:53:50.909Z,92.80
2018-07-30T05:56:20.048Z,92.70
2018-07-30T05:58:49.215Z,92.50
2018-07-30T06:01:18.436Z,92.40
2018-07-30T06:03:47.434Z,92.60
2018-07-30T06:06:16.629Z,92.90
2018-07-30T06:08:46.785Z,92.40
2018-07-30T06:11:16.144Z,91.70
2018-07-30T06:13:45.121Z,91.60
2018-07-30T06:16:14.145Z,90.60
2018-07-30T06:18:43.290Z,89.30
2018-07-30T06:21:12.343Z,90.10
2018-07-30T06:23:41.500Z,88.00
2018-07-30T06:26:10.971Z,86.40
2018-07-30T06:28:40.716Z,86.40
2018-07-30T06:31:09.849Z,86.00
2018-07-30T06:33:38.954Z,85.00
2018-07-30T06:36:08.327Z,83.70
2018-07-30T06:38:37.531Z,84.20
2018-07-30T06:41:06.571Z,84.30
2018-07-30T06:43:35.761Z,81.60
2018-07-30T06:46:05.143Z,81.50
2018-07-30T06:48:34.636Z,82.20
2018-07-30T06:51:03.986Z,81.40
2018-07-30T06:53:33.232Z,79.70
2018-07-30T06:56:02.349Z,77.30
2018-07-30T06:58:31.479Z,76.90
2018-07-30T07:01:00.868Z,74.40
2018-07-30T07:03:29.967Z,72.20
2018-07-30T07:05:59.105Z,72.80
2018-07-30T07:08:28.205Z,72.00
2018-07-30T07:10:57.504Z,73.80
2018-07-30T07:13:27.505Z,72.00
2018-07-30T07:15:57.024Z,71.10
2018-07-30T07:18:26.645Z,70.90
2018-07-30T07:20:56.179Z,71.90
2018-07-30T07:23:25.602Z,71.80
2018-07-30T07:25:54.602Z,69.50
2018-07-30T07:28:23.624Z,69.90
2018-07-30T07:30:53.064Z,67.20
2018-07-30T07:33:22.049Z,67.00
2018-07-30T07:35:51.140Z,68.20
2018-07-30T07:38:20.209Z,67.10
2018-07-30T07:40:49.194Z,66.00
2018-07-30T07:43:18.194Z,65.40
2018-07-30T07:45:47.362Z,63.80
2018-07-30T07:48:20.810Z,64.20
2018-07-30T07:50:52.366Z,62.00
2018-07-30T07:53:21.359Z,65.10
2018-07-30T07:58:24.416Z,59.60
2018-07-30T08:03:52.297Z,60.00
2018-07-30T08:06:22.287Z,59.00
2018-07-30T08:08:51.180Z,59.00
2018-07-30T08:11:20.212Z,59.60
2018-07-30T08:16:23.665Z,59.80
2018-07-30T08:18:52.769Z,60.30
2018-07-30T08:21:24.345Z,56.50
2018-07-30T08:23:53.614Z,56.40
2018-07-30T08:26:22.837Z,56.70
2018-07-30T08:28:51.794Z,53.50
2018-07-30T08:31:20.820Z,53.20
2018-07-30T08:33:50.273Z,53.90
2018-07-30T08:36:19.563Z,53.60
2018-07-30T08:38:48.569Z,53.20
2018-07-30T08:41:17.809Z,53.20
2018-07-30T08:43:46.941Z,53.80
2018-07-30T08:46:15.975Z,53.40
2018-07-30T08:48:45.235Z,50.80
2018-07-30T08:51:14.568Z,49.40
2018-07-30T08:53:43.761Z,50.00
2018-07-30T08:56:13.090Z,50.20
2018-07-30T08:58:42.248Z,49.60
2018-07-30T09:01:50.171Z,50.00
2018-07-30T09:04:19.383Z,48.00
2018-07-30T09:06:48.577Z,49.40
2018-07-30T09:09:17.775Z,48.10
2018-07-30T09:11:46.889Z,48.60
2018-07-30T09:14:15.928Z,47.50
2018-07-30T09:16:45.190Z,46.50
2018-07-30T09:19:14.284Z,47.00
2018-07-30T09:21:43.225Z,46.20
2018-07-30T09:24:12.892Z,45.10
2018-07-30T09:26:41.931Z,45.00
2018-07-30T09:29:11.074Z,45.80
2018-07-30T09:31:40.178Z,45.10
2018-07-30T09:34:09.564Z,45.30
2018-07-30T09:36:38.689Z,44.30
2018-07-30T09:39:09.201Z,43.60
2018-07-30T09:44:07.053Z,44.30
2018-07-30T09:46:36.150Z,43.40
2018-07-30T09:49:05.473Z,43.70
2018-07-30T09:51:34.793Z,43.60
2018-07-30T09:54:03.767Z,43.70
2018-07-30T09:56:32.774Z,43.40
2018-07-30T10:01:31.204Z,42.90
2018-07-30T10:04:00.956Z,42.40
2018-07-30T10:06:30.157Z,43.10
2018-07-30T10:08:59.169Z,42.20
2018-07-30T10:11:28.135Z,42.40
2018-07-30T10:13:57.625Z,42.70
2018-07-30T10:16:26.784Z,42.50
2018-07-30T10:21:24.701Z,41.70
2018-07-30T10:23:53.693Z,40.30
2018-07-30T10:26:23.016Z,40.10
2018-07-30T10:28:52.010Z,40.80
2018-07-30T10:31:21.213Z,40.00
2018-07-30T10:33:50.353Z,40.70
2018-07-30T10:36:19.562Z,40.30
2018-07-30T10:38:48.598Z,40.30
2018-07-30T10:41:17.762Z,40.40
2018-07-30T10:43:46.811Z,41.80
2018-07-30T10:46:15.929Z,41.10
2018-07-30T10:48:45.089Z,40.90
2018-07-30T10:51:14.221Z,40.20
2018-07-30T10:53:43.500Z,39.70
2018-07-30T10:56:12.474Z,40.40
2018-07-30T10:58:41.637Z,39.90
2018-07-30T11:01:10.918Z,40.30
2018-07-30T11:03:40.018Z,39.70
2018-07-30T11:06:09.080Z,39.60
2018-07-30T11:08:38.158Z,39.30
2018-07-30T11:11:07.546Z,37.10
2018-07-30T11:13:36.711Z,38.20
2018-07-30T11:16:05.806Z,38.00
2018-07-30T11:18:34.786Z,37.10
2018-07-30T11:21:04.294Z,37.70
2018-07-30T11:23:33.285Z,39.10
2018-07-30T11:26:02.293Z,37.90
2018-07-30T11:28:31.251Z,38.40
2018-07-30T11:31:00.198Z,38.10
2018-07-30T11:33:29.187Z,37.50
2018-07-30T11:35:58.129Z,36.90
2018-07-30T11:38:27.185Z,38.50
2018-07-30T11:40:56.331Z,39.10
2018-07-30T11:43:25.383Z,38.10
2018-07-30T11:45:54.384Z,37.20
2018-07-30T11:48:23.536Z,38.20
2018-07-30T11:53:21.278Z,36.90
2018-07-30T11:55:50.302Z,36.80
2018-07-30T11:58:19.288Z,36.90
2018-07-30T12:00:48.437Z,36.10
2018-07-30T12:03:17.403Z,35.60
2018-07-30T12:05:46.599Z,35.70
2018-07-30T12:08:15.622Z,35.70
2018-07-30T12:10:44.812Z,36.30
2018-07-30T12:15:42.574Z,38.50
2018-07-30T12:18:11.564Z,35.40
2018-07-30T12:20:40.593Z,35.50
2018-07-30T12:23:09.840Z,35.30
2018-07-30T12:25:39.958Z,35.70
2018-07-30T12:28:09.028Z,34.80
2018-07-30T12:30:39.246Z,35.20
2018-07-30T12:33:08.172Z,35.10
2018-07-30T12:35:37.213Z,35.80
2018-07-30T12:38:06.353Z,34.90
2018-07-30T12:40:35.542Z,35.60
2018-07-30T12:43:05.714Z,35.10
2018-07-30T12:45:40.058Z,35.60
2018-07-30T12:48:10.196Z,35.60
2018-07-30T12:50:39.357Z,36.00
2018-07-30T12:53:08.549Z,35.50
2018-07-30T12:55:38.078Z,35.70
2018-07-30T12:58:07.971Z,35.50
2018-07-30T13:00:37.201Z,35.40
2018-07-30T13:05:35.133Z,37.50
2018-07-30T13:08:04.146Z,36.30
2018-07-30T13:10:33.133Z,36.30
2018-07-30T13:13:02.118Z,36.40
2018-07-30T13:15:31.159Z,36.40
2018-07-30T13:20:28.874Z,35.50
2018-07-30T13:22:58.054Z,35.40
2018-07-30T13:25:27.241Z,34.70
2018-07-30T13:27:56.521Z,35.00
2018-07-30T13:30:25.583Z,35.50
2018-07-30T13:32:54.631Z,36.00
2018-07-30T13:35:23.760Z,36.10
2018-07-30T13:37:52.934Z,36.50
2018-07-30T13:40:22.109Z,36.70
2018-07-30T13:42:51.087Z,36.30
2018-07-30T13:45:20.056Z,36.40
2018-07-30T13:47:49.144Z,37.50
2018-07-30T13:50:18.367Z,36.40
2018-07-30T13:52:47.412Z,35.30
2018-07-30T13:55:16.493Z,37.10
2018-07-30T13:57:45.653Z,34.60
2018-07-30T14:00:14.943Z,35.30
2018-07-30T14:02:44.041Z,34.30
2018-07-30T14:05:13.026Z,35.50
2018-07-30T14:07:42.285Z,34.70
2018-07-30T14:10:11.455Z,33.80
2018-07-30T14:12:40.505Z,34.40
2018-07-30T14:15:10.592Z,34.10
2018-07-30T14:17:41.068Z,34.70
2018-07-30T14:20:11.072Z,34.50
2018-07-30T14:22:41.588Z,33.40
2018-07-30T14:25:10.684Z,34.00
2018-07-30T14:27:39.779Z,35.10
2018-07-30T14:30:09.642Z,35.20
2018-07-30T14:32:39.158Z,35.90
2018-07-30T14:35:08.427Z,37.60
2018-07-30T14:37:38.565Z,36.40
2018-07-30T14:40:09.343Z,35.90
2018-07-30T14:42:38.511Z,37.00
2018-07-30T14:45:07.812Z,35.00
2018-07-30T14:47:37.389Z,35.40
2018-07-30T14:50:07.173Z,36.00
2018-07-30T14:52:36.245Z,34.20
2018-07-30T14:55:06.068Z,34.50
2018-07-30T14:57:35.165Z,34.30
2018-07-30T15:00:05.706Z,34.60
2018-07-30T15:02:34.946Z,34.60
2018-07-30T15:05:04.377Z,34.10
2018-07-30T15:07:33.578Z,34.30
2018-07-30T15:10:02.791Z,34.20
2018-07-30T15:12:32.227Z,34.10
2018-07-30T15:15:01.379Z,34.90
2018-07-30T15:17:30.589Z,36.20
2018-07-30T15:19:59.561Z,35.40
2018-07-30T15:22:28.574Z,35.90
2018-07-30T15:24:57.826Z,36.00
2018-07-30T15:27:27.109Z,35.70
2018-07-30T15:29:56.144Z,35.90
2018-07-30T15:32:25.731Z,35.90
2018-07-30T15:34:54.971Z,35.20
2018-07-30T15:37:24.104Z,36.80
2018-07-30T15:39:53.483Z,36.70
2018-07-30T15:42:22.611Z,36.90
2018-07-30T15:44:51.611Z,36.90
2018-07-30T15:47:20.745Z,35.40
2018-07-30T15:49:49.883Z,35.20
2018-07-30T15:52:18.953Z,35.90
2018-07-30T15:54:48.146Z,34.90
2018-07-30T15:57:17.220Z,34.90
2018-07-30T15:59:47.320Z,36.50
2018-07-30T16:02:16.482Z,35.90
2018-07-30T16:07:16.466Z,36.90
2018-07-30T16:09:45.534Z,36.40
2018-07-30T16:12:15.604Z,37.00
2018-07-30T16:14:44.703Z,37.50
2018-07-30T16:17:13.721Z,36.20
2018-07-30T16:19:42.774Z,35.80
2018-07-30T16:22:11.805Z,35.90
2018-07-30T16:24:40.935Z,37.50
2018-07-30T16:27:12.033Z,37.40
2018-07-30T16:29:43.121Z,36.80
2018-07-30T16:32:12.076Z,35.80
2018-07-30T16:34:41.244Z,36.50
2018-07-30T16:37:12.701Z,36.30
2018-07-30T16:39:41.829Z,37.00
2018-07-30T16:42:10.915Z,37.70
2018-07-30T16:44:40.068Z,36.50
2018-07-30T16:47:09.214Z,37.00
2018-07-30T16:52:07.202Z,37.00
2018-07-30T16:54:36.271Z,36.70
2018-07-30T16:57:05.823Z,37.30
2018-07-30T16:59:34.887Z,36.80
2018-07-30T17:02:04.170Z,37.50
2018-07-30T17:04:33.350Z,37.40
2018-07-30T17:07:03.914Z,37.20
2018-07-30T17:09:33.059Z,37.50
2018-07-30T17:12:02.078Z,37.70
2018-07-30T17:14:31.393Z,37.80
2018-07-30T17:17:00.604Z,37.70
2018-07-30T17:19:29.598Z,38.30
2018-07-30T17:21:58.728Z,39.80
2018-07-30T17:24:28.898Z,39.20
2018-07-30T17:26:58.062Z,40.00
2018-07-30T17:29:27.249Z,40.40
2018-07-30T17:31:56.397Z,39.90
2018-07-30T17:34:25.545Z,38.90
2018-07-30T17:36:54.998Z,39.10
2018-07-30T17:39:24.133Z,40.40
2018-07-30T17:41:53.300Z,39.60
2018-07-30T17:44:22.494Z,39.60
2018-07-30T17:46:52.047Z,39.70
2018-07-30T17:49:21.083Z,40.70
2018-07-30T17:51:50.285Z,39.50
2018-07-30T17:54:19.733Z,40.00
2018-07-30T17:56:48.994Z,40.30
2018-07-30T17:59:18.312Z,39.40
2018-07-30T18:01:47.400Z,39.20
2018-07-30T18:06:45.404Z,41.00
2018-07-30T18:09:14.470Z,41.10
2018-07-30T18:11:43.612Z,40.60
2018-07-30T18:14:12.666Z,41.40
2018-07-30T18:16:41.855Z,41.80
2018-07-30T18:19:10.968Z,42.30
2018-07-30T18:21:40.025Z,43.00
2018-07-30T18:24:09.123Z,42.70
2018-07-30T18:26:38.277Z,42.80
2018-07-30T18:29:08.352Z,43.70
2018-07-30T18:31:37.379Z,43.80
2018-07-30T18:34:06.457Z,42.80
2018-07-30T18:39:05.828Z,43.70
2018-07-30T18:41:34.885Z,44.40
2018-07-30T18:44:04.064Z,44.30
2018-07-30T18:46:33.392Z,45.00
2018-07-30T18:49:02.747Z,44.70
2018-07-30T18:51:31.832Z,45.80
2018-07-30T18:54:01.992Z,45.00
2018-07-30T18:56:31.431Z,46.40
2018-07-30T18:59:00.562Z,45.90
2018-07-30T19:01:29.970Z,46.30
2018-07-30T19:03:59.478Z,46.50
2018-07-30T19:06:28.630Z,46.60
2018-07-30T19:11:26.400Z,47.70
2018-07-30T19:13:55.574Z,48.20
2018-07-30T19:16:24.890Z,48.50
2018-07-30T19:18:54.246Z,50.30
2018-07-30T19:21:23.507Z,51.80
2018-07-30T19:23:52.833Z,53.30
2018-07-30T19:26:22.128Z,53.70
2018-07-30T19:31:20.414Z,55.40
2018-07-30T19:33:49.594Z,55.80
2018-07-30T19:36:18.929Z,56.60
2018-07-30T19:38:47.945Z,56.60
2018-07-30T19:41:17.108Z,57.70
2018-07-30T19:43:47.453Z,58.00
2018-07-30T19:46:17.005Z,58.90
2018-07-30T19:48:46.146Z,59.20
2018-07-30T19:51:15.593Z,59.60
2018-07-30T19:53:44.699Z,60.30
2018-07-30T19:56:14.048Z,60.80
2018-07-30T19:58:44.440Z,61.30
2018-07-30T20:01:13.529Z,62.10
2018-07-30T20:03:42.524Z,62.40
2018-07-30T20:06:11.514Z,63.30
2018-07-30T20:08:40.600Z,65.70
2018-07-30T20:11:09.805Z,67.90
2018-07-30T20:13:38.917Z,64.20
2018-07-30T20:16:09.104Z,61.60
2018-07-30T20:18:38.199Z,62.60
2018-07-30T20:21:07.209Z,61.50
2018-07-30T20:23:36.257Z,61.80
2018-07-30T20:26:05.449Z,61.50
2018-07-30T20:28:34.470Z,62.00
2018-07-30T20:31:03.743Z,61.60
2018-07-30T20:33:32.799Z,61.50
2018-07-30T20:36:01.867Z,61.80
2018-07-30T20:38:31.082Z,61.80
2018-07-30T20:41:00.149Z,62.20
2018-07-30T20:45:58.376Z,63.50
2018-07-30T20:48:27.495Z,63.60
2018-07-30T20:50:56.540Z,63.50
2018-07-30T20:53:25.919Z,64.40
2018-07-30T20:55:55.569Z,64.20
2018-07-30T20:58:24.866Z,64.80
2018-07-30T21:00:54.040Z,65.50
2018-07-30T21:03:23.372Z,65.00
2018-07-30T21:05:52.503Z,66.50
2018-07-30T21:08:21.669Z,67.00
2018-07-30T21:10:50.759Z,66.70
2018-07-30T21:13:19.790Z,66.70
2018-07-30T21:15:49.268Z,67.50
2018-07-30T21:18:18.378Z,67.60
2018-07-30T21:20:47.682Z,68.80
2018-07-30T21:23:16.941Z,69.40
2018-07-30T21:25:45.942Z,69.60
2018-07-30T21:28:15.121Z,71.00
2018-07-30T21:30:44.450Z,71.40
2018-07-30T21:33:14.370Z,72.20
2018-07-30T21:35:43.409Z,72.40
2018-07-30T21:38:12.665Z,74.10
2018-07-30T21:40:42.430Z,73.60
2018-07-30T21:43:11.426Z,74.40
2018-07-30T21:45:40.621Z,75.60
2018-07-30T21:48:09.601Z,75.40
2018-07-30T21:50:38.909Z,76.10
2018-07-30T21:53:09.303Z,77.70
2018-07-30T21:55:38.475Z,76.50
2018-07-30T22:00:36.409Z,78.30
2018-07-30T22:03:05.772Z,79.10
2018-07-30T22:05:35.115Z,79.30
2018-07-30T22:08:04.305Z,81.10
2018-07-30T22:10:33.298Z,82.00
2018-07-30T22:13:02.269Z,82.20
2018-07-30T22:15:31.250Z,82.90
2018-07-30T22:18:00.432Z,84.90
2018-07-30T22:20:29.496Z,87.40
2018-07-30T22:22:58.746Z,88.30
2018-07-30T22:25:27.757Z,90.00
2018-07-30T22:27:56.813Z,90.60
2018-07-30T22:30:25.758Z,91.20
2018-07-30T22:32:55.022Z,91.00
2018-07-30T22:35:24.174Z,91.60
2018-07-30T22:37:53.181Z,92.50
2018-07-30T22:40:23.060Z,92.90
2018-07-30T22:42:52.041Z,92.80
2018-07-30T22:45:21.037Z,93.90
2018-07-30T22:47:50.034Z,94.50
2018-07-30T22:50:19.183Z,95.00
2018-07-30T22:52:48.275Z,95.40
2018-07-30T22:57:46.022Z,95.70
2018-07-30T23:00:15.031Z,96.30
2018-07-30T23:05:12.621Z,96.60
2018-07-30T23:07:41.923Z,96.60
2018-07-30T23:10:11.026Z,96.70
2018-07-30T23:15:08.767Z,97.50
2018-07-30T23:17:38.095Z,96.90
2018-07-30T23:20:07.291Z,98.00
2018-07-30T23:22:36.220Z,97.80
2018-07-30T23:25:05.797Z,98.00
2018-07-30T23:27:34.766Z,98.20
2018-07-30T23:30:03.822Z,98.20
2018-07-30T23:32:32.976Z,98.80
2018-07-30T23:37:30.591Z,98.60
2018-07-30T23:39:59.710Z,98.50
2018-07-30T23:42:28.660Z,98.40
2018-07-30T23:44:57.743Z,98.80
2018-07-30T23:47:27.003Z,98.70
2018-07-30T23:49:56.027Z,98.80
2018-07-30T23:52:25.064Z,99.30
2018-07-30T23:54:54.113Z,99.40
2018-07-30T23:57:23.110Z,99.50
2018-07-30T23:59:52.478Z,99.90
